TLSO2: Arkansas River, Tulsa, OK

Data processed at Thu Jan 04 2018 23:47


All information presented herein is the property of the government of the United States of America and may be revised or deleted at any time without prior notice.
Dissemination of this information without the expressed written consent of the Public Affairs Office, Tulsa District U.S. Army Corps of Engineers is strictly prohibited.
These data are gathered electronically and, as presented, have not undergone any form of quality control. These data are not guaranteed to be valid or correct.
Go to home page.
Go to station list.

Upstream stations:

Downstream station:
Previous Day
Next Day
Current Day
    
SHEF ID:       TLSO2     Arkansas River at Tulsa, OK
STATION TYPE:  

               PRECIP     STAGE  STAGE(2)  RIV-FLOW  WTR-TEMP   DIS-OXY  BAT-LOAD
                   in        ft        ft       cfs         F      mg/l      volt
              Ccp-Rev   Ccp-Rev   Ccp-Rev   Ccp-Rev   Ccp-Rev   Ccp-Rev   Ccp-Rev
(US/Central)
01/02 00:00      0.00      1.98      ----      1546     36.72     12.52     12.49
01/02 01:00      0.00      3.07      ----      5251     35.78     12.70     12.49
01/02 02:00      0.00      3.68      ----      7792     36.82     12.46     12.41
01/02 03:00      0.00      3.78      ----      8208     38.08     12.05     12.41
01/02 04:00      0.00      3.54      ----      7208     38.53     11.87     12.41
01/02 05:00      0.00      3.21      ----      5834     38.41     11.86     12.41
01/02 06:00      0.00      2.86      ----      4334     38.05     11.93     12.41
01/02 07:00      0.00      2.54      ----      3104     37.72     11.95     12.41
01/02 08:00      0.00      2.25      ----      2210     37.09     12.07     12.33
01/02 09:00      0.00      2.00      ----      1590     36.93     12.17     12.41
01/02 10:00      0.00      1.81      ----      1204     36.88     12.29     12.65
01/02 11:00      0.00      1.68      ----       979     36.82     12.41     13.05
01/02 12:00      0.00      1.85      ----      1280     36.84     12.60     13.68
01/02 13:00      0.00      2.99      ----      4913     37.24     12.54     13.76
01/02 14:00      0.00      3.63      ----      7583     38.21     12.19     13.68
01/02 15:00      0.00      3.76      ----      8124     39.61     11.91     13.68
01/02 16:00      0.00      3.54      ----      7208     40.15     11.87     13.44
01/02 17:00      0.00      3.20      ----      5792     40.57     11.85     13.05
01/02 18:00      0.00      2.87      ----      4377     40.33     11.88     12.73
01/02 19:00      0.00      2.54      ----      3104     39.69     11.99     12.65
01/02 20:00      0.00      2.25      ----      2210     39.38     12.05     12.65
01/02 21:00      0.00      2.00      ----      1590     38.97     12.10     12.57
01/02 22:00      0.00      1.80      ----      1186     38.53     12.18     12.57
01/02 23:00      0.00      1.67      ----       963     37.98     12.25     12.57